sensor_id;sensor_type;location;lat;lon;timestamp;P1;durP1;ratioP1;P2;durP2;ratioP2
12687;SDS011;6408;59.388;17.798;2022-09-11T00:01:28;2.00;;;1.67;;
12687;SDS011;6408;59.388;17.798;2022-09-11T00:03:56;2.73;;;1.70;;
12687;SDS011;6408;59.388;17.798;2022-09-11T00:06:33;3.90;;;1.60;;
12687;SDS011;6408;59.388;17.798;2022-09-11T00:09:03;3.53;;;1.80;;
12687;SDS011;6408;59.388;17.798;2022-09-11T00:11:35;3.63;;;1.50;;
12687;SDS011;6408;59.388;17.798;2022-09-11T00:14:08;2.70;;;1.60;;
12687;SDS011;6408;59.388;17.798;2022-09-11T00:16:37;4.03;;;1.73;;
12687;SDS011;6408;59.388;17.798;2022-09-11T00:19:10;2.30;;;1.80;;
12687;SDS011;6408;59.388;17.798;2022-09-11T00:21:40;3.50;;;1.57;;
12687;SDS011;6408;59.388;17.798;2022-09-11T00:24:08;2.43;;;1.60;;
12687;SDS011;6408;59.388;17.798;2022-09-11T00:26:37;2.57;;;1.80;;
12687;SDS011;6408;59.388;17.798;2022-09-11T00:29:05;2.77;;;1.33;;
12687;SDS011;6408;59.388;17.798;2022-09-11T00:31:33;3.70;;;1.80;;
12687;SDS011;6408;59.388;17.798;2022-09-11T00:34:01;2.97;;;1.67;;
12687;SDS011;6408;59.388;17.798;2022-09-11T00:36:31;1.73;;;1.40;;
12687;SDS011;6408;59.388;17.798;2022-09-11T00:38:59;1.67;;;1.50;;
12687;SDS011;6408;59.388;17.798;2022-09-11T00:41:28;2.37;;;1.90;;
12687;SDS011;6408;59.388;17.798;2022-09-11T00:44:01;3.33;;;1.60;;
12687;SDS011;6408;59.388;17.798;2022-09-11T00:46:36;3.40;;;1.70;;
12687;SDS011;6408;59.388;17.798;2022-09-11T00:49:13;5.40;;;1.90;;
12687;SDS011;6408;59.388;17.798;2022-09-11T00:51:45;4.60;;;1.77;;
12687;SDS011;6408;59.388;17.798;2022-09-11T00:54:18;3.93;;;1.83;;
12687;SDS011;6408;59.388;17.798;2022-09-11T00:56:50;7.30;;;1.80;;
12687;SDS011;6408;59.388;17.798;2022-09-11T00:59:22;1.50;;;1.40;;
12687;SDS011;6408;59.388;17.798;2022-09-11T01:01:51;2.37;;;1.60;;
12687;SDS011;6408;59.388;17.798;2022-09-11T01:04:19;3.33;;;1.83;;
12687;SDS011;6408;59.388;17.798;2022-09-11T01:06:49;3.07;;;1.43;;
12687;SDS011;6408;59.388;17.798;2022-09-11T01:09:18;2.40;;;1.50;;
12687;SDS011;6408;59.388;17.798;2022-09-11T01:11:46;3.50;;;1.80;;
12687;SDS011;6408;59.388;17.798;2022-09-11T01:14:31;4.10;;;1.60;;
12687;SDS011;6408;59.388;17.798;2022-09-11T01:17:08;2.20;;;1.60;;
12687;SDS011;6408;59.388;17.798;2022-09-11T01:19:54;1.50;;;1.40;;
12687;SDS011;6408;59.388;17.798;2022-09-11T01:22:50;2.77;;;1.70;;
12687;SDS011;6408;59.388;17.798;2022-09-11T01:25:45;3.00;;;1.70;;
12687;SDS011;6408;59.388;17.798;2022-09-11T01:28:29;2.20;;;1.70;;
12687;SDS011;6408;59.388;17.798;2022-09-11T01:31:03;4.73;;;1.97;;
12687;SDS011;6408;59.388;17.798;2022-09-11T01:33:36;4.50;;;1.90;;
12687;SDS011;6408;59.388;17.798;2022-09-11T01:36:09;2.50;;;1.80;;
12687;SDS011;6408;59.388;17.798;2022-09-11T01:38:47;1.47;;;1.37;;
12687;SDS011;6408;59.388;17.798;2022-09-11T01:41:20;2.87;;;1.47;;
12687;SDS011;6408;59.388;17.798;2022-09-11T01:43:56;2.77;;;1.83;;
12687;SDS011;6408;59.388;17.798;2022-09-11T01:46:28;2.93;;;1.70;;
12687;SDS011;6408;59.388;17.798;2022-09-11T01:49:00;1.73;;;1.47;;
12687;SDS011;6408;59.388;17.798;2022-09-11T01:51:31;3.20;;;1.60;;
12687;SDS011;6408;59.388;17.798;2022-09-11T01:54:02;2.47;;;1.70;;
12687;SDS011;6408;59.388;17.798;2022-09-11T01:56:35;3.90;;;2.00;;
12687;SDS011;6408;59.388;17.798;2022-09-11T01:59:08;3.90;;;1.70;;
12687;SDS011;6408;59.388;17.798;2022-09-11T02:04:58;3.23;;;1.73;;
12687;SDS011;6408;59.388;17.798;2022-09-11T02:07:29;4.17;;;1.50;;
12687;SDS011;6408;59.388;17.798;2022-09-11T02:10:01;1.73;;;1.60;;
12687;SDS011;6408;59.388;17.798;2022-09-11T02:12:39;3.83;;;1.93;;
12687;SDS011;6408;59.388;17.798;2022-09-11T02:15:12;2.20;;;1.87;;
12687;SDS011;6408;59.388;17.798;2022-09-11T02:17:44;2.23;;;1.60;;
12687;SDS011;6408;59.388;17.798;2022-09-11T02:20:16;3.03;;;1.40;;
12687;SDS011;6408;59.388;17.798;2022-09-11T02:22:46;2.97;;;1.80;;
12687;SDS011;6408;59.388;17.798;2022-09-11T02:25:14;2.40;;;1.77;;
12687;SDS011;6408;59.388;17.798;2022-09-11T02:27:42;3.63;;;1.90;;
12687;SDS011;6408;59.388;17.798;2022-09-11T02:30:14;2.67;;;1.50;;
12687;SDS011;6408;59.388;17.798;2022-09-11T02:32:42;2.97;;;1.80;;
12687;SDS011;6408;59.388;17.798;2022-09-11T02:35:11;5.07;;;1.80;;
12687;SDS011;6408;59.388;17.798;2022-09-11T02:37:48;2.43;;;1.50;;
12687;SDS011;6408;59.388;17.798;2022-09-11T02:40:28;2.37;;;1.83;;
12687;SDS011;6408;59.388;17.798;2022-09-11T02:43:08;3.30;;;1.60;;
12687;SDS011;6408;59.388;17.798;2022-09-11T02:46:03;3.00;;;1.60;;
12687;SDS011;6408;59.388;17.798;2022-09-11T02:48:52;2.00;;;1.70;;
12687;SDS011;6408;59.388;17.798;2022-09-11T02:51:32;3.60;;;1.90;;
12687;SDS011;6408;59.388;17.798;2022-09-11T02:54:10;3.07;;;1.80;;
12687;SDS011;6408;59.388;17.798;2022-09-11T02:56:47;3.87;;;1.57;;
12687;SDS011;6408;59.388;17.798;2022-09-11T02:59:35;3.30;;;1.60;;
12687;SDS011;6408;59.388;17.798;2022-09-11T03:02:11;3.07;;;1.77;;
12687;SDS011;6408;59.388;17.798;2022-09-11T03:04:41;4.20;;;1.70;;
12687;SDS011;6408;59.388;17.798;2022-09-11T03:07:12;1.93;;;1.73;;
12687;SDS011;6408;59.388;17.798;2022-09-11T03:09:40;2.53;;;1.70;;
12687;SDS011;6408;59.388;17.798;2022-09-11T03:12:08;2.87;;;1.70;;
12687;SDS011;6408;59.388;17.798;2022-09-11T03:14:35;2.70;;;1.57;;
12687;SDS011;6408;59.388;17.798;2022-09-11T03:20:46;3.80;;;1.90;;
12687;SDS011;6408;59.388;17.798;2022-09-11T03:23:17;2.40;;;1.70;;
12687;SDS011;6408;59.388;17.798;2022-09-11T03:25:45;2.70;;;2.00;;
12687;SDS011;6408;59.388;17.798;2022-09-11T03:28:13;4.10;;;1.80;;
12687;SDS011;6408;59.388;17.798;2022-09-11T03:30:42;3.63;;;1.73;;
12687;SDS011;6408;59.388;17.798;2022-09-11T03:33:17;3.37;;;1.67;;
12687;SDS011;6408;59.388;17.798;2022-09-11T03:35:47;3.40;;;1.70;;
12687;SDS011;6408;59.388;17.798;2022-09-11T03:38:17;3.53;;;1.80;;
12687;SDS011;6408;59.388;17.798;2022-09-11T03:40:45;3.60;;;2.10;;
12687;SDS011;6408;59.388;17.798;2022-09-11T03:43:14;4.47;;;1.90;;
12687;SDS011;6408;59.388;17.798;2022-09-11T03:45:43;2.50;;;1.53;;
12687;SDS011;6408;59.388;17.798;2022-09-11T03:48:28;2.87;;;1.70;;
12687;SDS011;6408;59.388;17.798;2022-09-11T03:50:57;3.63;;;1.90;;
12687;SDS011;6408;59.388;17.798;2022-09-11T03:53:25;4.90;;;1.80;;
12687;SDS011;6408;59.388;17.798;2022-09-11T03:55:57;2.50;;;2.03;;
12687;SDS011;6408;59.388;17.798;2022-09-11T03:58:28;4.90;;;2.00;;
12687;SDS011;6408;59.388;17.798;2022-09-11T04:00:55;3.20;;;1.57;;
12687;SDS011;6408;59.388;17.798;2022-09-11T04:03:39;2.83;;;1.87;;
12687;SDS011;6408;59.388;17.798;2022-09-11T04:06:16;2.83;;;1.90;;
12687;SDS011;6408;59.388;17.798;2022-09-11T04:08:44;2.30;;;1.87;;
12687;SDS011;6408;59.388;17.798;2022-09-11T04:11:25;1.93;;;1.70;;
12687;SDS011;6408;59.388;17.798;2022-09-11T04:13:56;2.93;;;1.90;;
12687;SDS011;6408;59.388;17.798;2022-09-11T04:16:24;2.90;;;2.00;;
12687;SDS011;6408;59.388;17.798;2022-09-11T04:24:40;3.63;;;1.90;;
12687;SDS011;6408;59.388;17.798;2022-09-11T04:27:21;3.70;;;1.63;;
12687;SDS011;6408;59.388;17.798;2022-09-11T04:29:49;5.00;;;1.80;;
12687;SDS011;6408;59.388;17.798;2022-09-11T04:32:18;3.93;;;1.97;;
12687;SDS011;6408;59.388;17.798;2022-09-11T04:34:47;2.90;;;2.00;;
12687;SDS011;6408;59.388;17.798;2022-09-11T04:37:20;1.93;;;1.70;;
12687;SDS011;6408;59.388;17.798;2022-09-11T04:39:56;3.03;;;2.07;;
12687;SDS011;6408;59.388;17.798;2022-09-11T04:49:19;2.73;;;1.80;;
12687;SDS011;6408;59.388;17.798;2022-09-11T04:51:46;2.00;;;1.60;;
12687;SDS011;6408;59.388;17.798;2022-09-11T04:54:14;7.20;;;1.90;;
12687;SDS011;6408;59.388;17.798;2022-09-11T04:56:42;2.13;;;1.93;;
12687;SDS011;6408;59.388;17.798;2022-09-11T04:59:15;2.53;;;1.70;;
12687;SDS011;6408;59.388;17.798;2022-09-11T05:01:43;3.80;;;1.83;;
12687;SDS011;6408;59.388;17.798;2022-09-11T05:04:11;4.67;;;2.93;;
12687;SDS011;6408;59.388;17.798;2022-09-11T05:06:41;6.40;;;2.70;;
12687;SDS011;6408;59.388;17.798;2022-09-11T05:09:09;4.40;;;3.53;;
12687;SDS011;6408;59.388;17.798;2022-09-11T05:11:37;4.00;;;2.70;;
12687;SDS011;6408;59.388;17.798;2022-09-11T05:14:04;2.90;;;1.97;;
12687;SDS011;6408;59.388;17.798;2022-09-11T05:16:37;3.00;;;2.43;;
12687;SDS011;6408;59.388;17.798;2022-09-11T05:19:05;5.57;;;3.83;;
12687;SDS011;6408;59.388;17.798;2022-09-11T05:21:32;5.57;;;3.53;;
12687;SDS011;6408;59.388;17.798;2022-09-11T05:24:02;4.27;;;3.23;;
12687;SDS011;6408;59.388;17.798;2022-09-11T05:26:29;4.60;;;3.17;;
12687;SDS011;6408;59.388;17.798;2022-09-11T05:29:12;4.67;;;2.60;;
12687;SDS011;6408;59.388;17.798;2022-09-11T05:31:43;4.47;;;3.00;;
12687;SDS011;6408;59.388;17.798;2022-09-11T05:34:24;4.20;;;2.90;;
12687;SDS011;6408;59.388;17.798;2022-09-11T05:36:52;5.40;;;3.10;;
12687;SDS011;6408;59.388;17.798;2022-09-11T05:39:23;3.37;;;3.00;;
12687;SDS011;6408;59.388;17.798;2022-09-11T05:41:50;3.77;;;2.40;;
12687;SDS011;6408;59.388;17.798;2022-09-11T05:44:19;3.20;;;2.13;;
12687;SDS011;6408;59.388;17.798;2022-09-11T05:46:46;6.17;;;2.13;;
12687;SDS011;6408;59.388;17.798;2022-09-11T05:49:13;4.93;;;2.10;;
12687;SDS011;6408;59.388;17.798;2022-09-11T05:51:47;2.80;;;1.80;;
12687;SDS011;6408;59.388;17.798;2022-09-11T05:54:14;2.40;;;1.70;;
12687;SDS011;6408;59.388;17.798;2022-09-11T05:56:42;2.83;;;1.87;;
12687;SDS011;6408;59.388;17.798;2022-09-11T05:59:15;5.90;;;2.07;;
12687;SDS011;6408;59.388;17.798;2022-09-11T06:01:48;3.27;;;2.00;;
12687;SDS011;6408;59.388;17.798;2022-09-11T06:04:15;7.37;;;2.10;;
12687;SDS011;6408;59.388;17.798;2022-09-11T06:06:43;4.60;;;1.83;;
12687;SDS011;6408;59.388;17.798;2022-09-11T06:09:12;3.87;;;2.30;;
12687;SDS011;6408;59.388;17.798;2022-09-11T06:11:39;3.33;;;1.83;;
12687;SDS011;6408;59.388;17.798;2022-09-11T06:14:09;2.63;;;1.77;;
12687;SDS011;6408;59.388;17.798;2022-09-11T06:16:37;3.53;;;1.57;;
12687;SDS011;6408;59.388;17.798;2022-09-11T06:19:05;2.53;;;1.80;;
12687;SDS011;6408;59.388;17.798;2022-09-11T06:21:35;2.33;;;1.90;;
12687;SDS011;6408;59.388;17.798;2022-09-11T06:24:02;4.13;;;2.13;;
12687;SDS011;6408;59.388;17.798;2022-09-11T06:26:29;3.67;;;2.20;;
12687;SDS011;6408;59.388;17.798;2022-09-11T06:28:56;3.10;;;2.00;;
12687;SDS011;6408;59.388;17.798;2022-09-11T06:31:25;3.10;;;1.90;;
12687;SDS011;6408;59.388;17.798;2022-09-11T06:33:54;3.87;;;1.77;;
12687;SDS011;6408;59.388;17.798;2022-09-11T06:36:21;3.47;;;2.23;;
12687;SDS011;6408;59.388;17.798;2022-09-11T06:38:51;2.90;;;1.80;;
12687;SDS011;6408;59.388;17.798;2022-09-11T06:41:19;3.37;;;1.90;;
12687;SDS011;6408;59.388;17.798;2022-09-11T06:43:48;4.37;;;1.67;;
12687;SDS011;6408;59.388;17.798;2022-09-11T06:46:16;3.70;;;1.80;;
12687;SDS011;6408;59.388;17.798;2022-09-11T06:48:47;4.27;;;2.00;;
12687;SDS011;6408;59.388;17.798;2022-09-11T06:51:17;3.60;;;1.70;;
12687;SDS011;6408;59.388;17.798;2022-09-11T06:53:44;3.30;;;1.93;;
12687;SDS011;6408;59.388;17.798;2022-09-11T06:56:13;4.07;;;2.10;;
12687;SDS011;6408;59.388;17.798;2022-09-11T06:58:41;1.93;;;1.53;;
12687;SDS011;6408;59.388;17.798;2022-09-11T07:01:09;7.10;;;2.67;;
12687;SDS011;6408;59.388;17.798;2022-09-11T07:03:40;7.27;;;2.40;;
12687;SDS011;6408;59.388;17.798;2022-09-11T07:06:10;4.10;;;1.93;;
12687;SDS011;6408;59.388;17.798;2022-09-11T07:08:37;2.70;;;1.77;;
12687;SDS011;6408;59.388;17.798;2022-09-11T07:11:04;2.63;;;1.80;;
12687;SDS011;6408;59.388;17.798;2022-09-11T07:13:33;2.80;;;1.60;;
12687;SDS011;6408;59.388;17.798;2022-09-11T07:16:00;1.92;;;1.45;;
12687;SDS011;6408;59.388;17.798;2022-09-11T07:18:31;2.17;;;1.70;;
12687;SDS011;6408;59.388;17.798;2022-09-11T07:21:07;2.30;;;1.60;;
12687;SDS011;6408;59.388;17.798;2022-09-11T07:23:45;6.13;;;1.80;;
12687;SDS011;6408;59.388;17.798;2022-09-11T07:26:18;4.73;;;1.80;;
12687;SDS011;6408;59.388;17.798;2022-09-11T07:28:46;2.88;;;1.80;;
12687;SDS011;6408;59.388;17.798;2022-09-11T07:31:14;5.47;;;1.73;;
12687;SDS011;6408;59.388;17.798;2022-09-11T07:33:44;3.23;;;1.60;;
12687;SDS011;6408;59.388;17.798;2022-09-11T07:36:14;1.73;;;1.43;;
12687;SDS011;6408;59.388;17.798;2022-09-11T07:38:43;1.63;;;1.30;;
12687;SDS011;6408;59.388;17.798;2022-09-11T07:41:11;3.43;;;1.50;;
12687;SDS011;6408;59.388;17.798;2022-09-11T07:43:39;2.57;;;1.70;;
12687;SDS011;6408;59.388;17.798;2022-09-11T07:46:09;2.73;;;1.63;;
12687;SDS011;6408;59.388;17.798;2022-09-11T07:48:41;3.03;;;1.90;;
12687;SDS011;6408;59.388;17.798;2022-09-11T07:51:15;3.27;;;1.60;;
12687;SDS011;6408;59.388;17.798;2022-09-11T07:53:44;2.47;;;1.50;;
12687;SDS011;6408;59.388;17.798;2022-09-11T07:56:13;3.00;;;1.65;;
12687;SDS011;6408;59.388;17.798;2022-09-11T07:58:42;1.90;;;1.63;;
12687;SDS011;6408;59.388;17.798;2022-09-11T08:01:14;3.57;;;1.83;;
12687;SDS011;6408;59.388;17.798;2022-09-11T08:03:42;3.87;;;1.60;;
12687;SDS011;6408;59.388;17.798;2022-09-11T08:06:10;2.93;;;1.67;;
12687;SDS011;6408;59.388;17.798;2022-09-11T08:08:41;5.37;;;1.83;;
12687;SDS011;6408;59.388;17.798;2022-09-11T08:11:08;7.13;;;1.83;;
12687;SDS011;6408;59.388;17.798;2022-09-11T08:13:37;3.67;;;1.70;;
12687;SDS011;6408;59.388;17.798;2022-09-11T08:16:05;2.00;;;1.50;;
12687;SDS011;6408;59.388;17.798;2022-09-11T08:18:33;3.03;;;1.60;;
12687;SDS011;6408;59.388;17.798;2022-09-11T08:21:01;3.00;;;1.60;;
12687;SDS011;6408;59.388;17.798;2022-09-11T08:23:30;4.18;;;1.80;;
12687;SDS011;6408;59.388;17.798;2022-09-11T08:26:03;1.80;;;1.70;;
12687;SDS011;6408;59.388;17.798;2022-09-11T08:28:31;2.20;;;1.73;;
12687;SDS011;6408;59.388;17.798;2022-09-11T08:30:59;2.77;;;1.60;;
12687;SDS011;6408;59.388;17.798;2022-09-11T08:33:26;4.30;;;1.63;;
12687;SDS011;6408;59.388;17.798;2022-09-11T08:35:53;5.90;;;1.67;;
12687;SDS011;6408;59.388;17.798;2022-09-11T08:38:22;3.13;;;1.50;;
12687;SDS011;6408;59.388;17.798;2022-09-11T08:40:50;3.10;;;1.80;;
12687;SDS011;6408;59.388;17.798;2022-09-11T08:43:21;2.93;;;1.60;;
12687;SDS011;6408;59.388;17.798;2022-09-11T08:45:52;3.97;;;1.90;;
12687;SDS011;6408;59.388;17.798;2022-09-11T08:48:26;3.23;;;1.57;;
12687;SDS011;6408;59.388;17.798;2022-09-11T08:50:59;2.88;;;1.60;;
12687;SDS011;6408;59.388;17.798;2022-09-11T08:53:26;2.35;;;1.85;;
12687;SDS011;6408;59.388;17.798;2022-09-11T08:55:58;2.67;;;1.80;;
12687;SDS011;6408;59.388;17.798;2022-09-11T08:58:35;3.93;;;1.73;;
12687;SDS011;6408;59.388;17.798;2022-09-11T09:01:13;2.53;;;1.57;;
12687;SDS011;6408;59.388;17.798;2022-09-11T09:06:42;2.97;;;1.70;;
12687;SDS011;6408;59.388;17.798;2022-09-11T09:09:20;1.90;;;1.40;;
12687;SDS011;6408;59.388;17.798;2022-09-11T09:11:53;3.23;;;2.10;;
12687;SDS011;6408;59.388;17.798;2022-09-11T09:14:29;3.10;;;1.80;;
12687;SDS011;6408;59.388;17.798;2022-09-11T09:17:14;1.83;;;1.40;;
12687;SDS011;6408;59.388;17.798;2022-09-11T09:19:45;3.95;;;1.85;;
12687;SDS011;6408;59.388;17.798;2022-09-11T09:22:15;4.60;;;1.63;;
12687;SDS011;6408;59.388;17.798;2022-09-11T09:24:47;2.43;;;1.50;;
12687;SDS011;6408;59.388;17.798;2022-09-11T09:27:17;3.45;;;1.75;;
12687;SDS011;6408;59.388;17.798;2022-09-11T09:29:48;3.67;;;1.70;;
12687;SDS011;6408;59.388;17.798;2022-09-11T09:32:22;3.25;;;1.60;;
12687;SDS011;6408;59.388;17.798;2022-09-11T09:34:54;4.22;;;2.17;;
12687;SDS011;6408;59.388;17.798;2022-09-11T09:37:25;2.75;;;1.65;;
12687;SDS011;6408;59.388;17.798;2022-09-11T09:39:53;3.30;;;2.30;;
12687;SDS011;6408;59.388;17.798;2022-09-11T09:42:28;5.70;;;1.90;;
12687;SDS011;6408;59.388;17.798;2022-09-11T09:45:21;2.85;;;1.60;;
12687;SDS011;6408;59.388;17.798;2022-09-11T09:47:58;5.43;;;1.65;;
12687;SDS011;6408;59.388;17.798;2022-09-11T09:50:27;4.95;;;1.95;;
12687;SDS011;6408;59.388;17.798;2022-09-11T09:52:56;2.97;;;1.70;;
12687;SDS011;6408;59.388;17.798;2022-09-11T09:55:36;3.05;;;1.63;;
12687;SDS011;6408;59.388;17.798;2022-09-11T09:58:04;3.20;;;1.60;;
12687;SDS011;6408;59.388;17.798;2022-09-11T10:00:34;5.32;;;1.60;;
12687;SDS011;6408;59.388;17.798;2022-09-11T10:03:15;3.70;;;1.60;;
12687;SDS011;6408;59.388;17.798;2022-09-11T10:05:43;2.47;;;1.70;;
12687;SDS011;6408;59.388;17.798;2022-09-11T10:08:21;3.42;;;1.60;;
12687;SDS011;6408;59.388;17.798;2022-09-11T10:10:52;1.67;;;1.52;;
12687;SDS011;6408;59.388;17.798;2022-09-11T10:13:23;1.63;;;1.50;;
12687;SDS011;6408;59.388;17.798;2022-09-11T10:15:54;5.05;;;1.90;;
12687;SDS011;6408;59.388;17.798;2022-09-11T10:18:34;6.18;;;1.60;;
12687;SDS011;6408;59.388;17.798;2022-09-11T10:21:19;2.47;;;1.75;;
12687;SDS011;6408;59.388;17.798;2022-09-11T10:23:49;4.70;;;1.80;;
12687;SDS011;6408;59.388;17.798;2022-09-11T10:26:22;2.22;;;1.60;;
12687;SDS011;6408;59.388;17.798;2022-09-11T10:28:52;5.63;;;1.70;;
12687;SDS011;6408;59.388;17.798;2022-09-11T10:31:22;2.45;;;1.90;;
12687;SDS011;6408;59.388;17.798;2022-09-11T10:33:52;1.85;;;1.50;;
12687;SDS011;6408;59.388;17.798;2022-09-11T10:36:22;3.63;;;1.70;;
12687;SDS011;6408;59.388;17.798;2022-09-11T10:38:51;4.53;;;1.60;;
12687;SDS011;6408;59.388;17.798;2022-09-11T10:41:19;4.10;;;1.85;;
12687;SDS011;6408;59.388;17.798;2022-09-11T10:43:50;3.17;;;1.80;;
12687;SDS011;6408;59.388;17.798;2022-09-11T10:49:08;2.58;;;1.40;;
12687;SDS011;6408;59.388;17.798;2022-09-11T10:51:57;3.15;;;1.67;;
12687;SDS011;6408;59.388;17.798;2022-09-11T10:54:30;2.97;;;1.80;;
12687;SDS011;6408;59.388;17.798;2022-09-11T10:57:08;3.75;;;1.73;;
12687;SDS011;6408;59.388;17.798;2022-09-11T10:59:41;4.43;;;1.80;;
12687;SDS011;6408;59.388;17.798;2022-09-11T11:02:23;2.03;;;1.42;;
12687;SDS011;6408;59.388;17.798;2022-09-11T11:04:54;1.90;;;1.60;;
12687;SDS011;6408;59.388;17.798;2022-09-11T11:07:27;3.45;;;1.58;;
12687;SDS011;6408;59.388;17.798;2022-09-11T11:10:08;2.55;;;1.45;;
12687;SDS011;6408;59.388;17.798;2022-09-11T11:12:48;3.22;;;1.90;;
12687;SDS011;6408;59.388;17.798;2022-09-11T11:15:29;2.63;;;1.63;;
12687;SDS011;6408;59.388;17.798;2022-09-11T11:18:11;2.28;;;1.67;;
12687;SDS011;6408;59.388;17.798;2022-09-11T11:20:49;2.22;;;1.42;;
12687;SDS011;6408;59.388;17.798;2022-09-11T11:23:36;3.33;;;1.75;;
12687;SDS011;6408;59.388;17.798;2022-09-11T11:26:26;3.33;;;1.83;;
12687;SDS011;6408;59.388;17.798;2022-09-11T11:29:04;2.92;;;1.80;;
12687;SDS011;6408;59.388;17.798;2022-09-11T11:32:05;2.75;;;1.48;;
12687;SDS011;6408;59.388;17.798;2022-09-11T11:34:47;4.60;;;1.52;;
12687;SDS011;6408;59.388;17.798;2022-09-11T11:37:27;1.73;;;1.27;;
12687;SDS011;6408;59.388;17.798;2022-09-11T11:39:59;6.07;;;1.75;;
12687;SDS011;6408;59.388;17.798;2022-09-11T11:42:31;2.47;;;1.33;;
12687;SDS011;6408;59.388;17.798;2022-09-11T11:45:05;3.28;;;1.50;;
12687;SDS011;6408;59.388;17.798;2022-09-11T11:47:36;2.72;;;1.80;;
12687;SDS011;6408;59.388;17.798;2022-09-11T11:50:11;3.35;;;2.03;;
12687;SDS011;6408;59.388;17.798;2022-09-11T11:52:48;1.90;;;1.45;;
12687;SDS011;6408;59.388;17.798;2022-09-11T11:55:31;5.10;;;2.08;;
12687;SDS011;6408;59.388;17.798;2022-09-11T11:58:11;4.72;;;1.95;;
12687;SDS011;6408;59.388;17.798;2022-09-11T12:00:45;2.60;;;1.83;;
12687;SDS011;6408;59.388;17.798;2022-09-11T12:03:21;3.90;;;1.67;;
12687;SDS011;6408;59.388;17.798;2022-09-11T12:05:55;2.88;;;1.88;;
12687;SDS011;6408;59.388;17.798;2022-09-11T12:08:22;2.20;;;1.65;;
12687;SDS011;6408;59.388;17.798;2022-09-11T12:10:52;2.30;;;1.50;;
12687;SDS011;6408;59.388;17.798;2022-09-11T12:13:24;2.05;;;1.85;;
12687;SDS011;6408;59.388;17.798;2022-09-11T12:16:05;2.40;;;1.52;;
12687;SDS011;6408;59.388;17.798;2022-09-11T12:18:38;2.10;;;1.85;;
12687;SDS011;6408;59.388;17.798;2022-09-11T12:24:11;2.75;;;1.90;;
12687;SDS011;6408;59.388;17.798;2022-09-11T12:29:52;2.75;;;1.80;;
12687;SDS011;6408;59.388;17.798;2022-09-11T12:32:39;3.50;;;1.98;;
12687;SDS011;6408;59.388;17.798;2022-09-11T12:38:01;2.20;;;1.85;;
12687;SDS011;6408;59.388;17.798;2022-09-11T12:40:37;3.45;;;1.83;;
12687;SDS011;6408;59.388;17.798;2022-09-11T12:45:53;2.83;;;1.80;;
12687;SDS011;6408;59.388;17.798;2022-09-11T12:48:21;4.88;;;1.60;;
12687;SDS011;6408;59.388;17.798;2022-09-11T12:50:51;3.50;;;1.60;;
12687;SDS011;6408;59.388;17.798;2022-09-11T12:53:23;4.88;;;1.80;;
12687;SDS011;6408;59.388;17.798;2022-09-11T12:55:53;3.80;;;1.67;;
12687;SDS011;6408;59.388;17.798;2022-09-11T12:58:29;4.15;;;1.80;;
12687;SDS011;6408;59.388;17.798;2022-09-11T13:01:01;3.88;;;1.75;;
12687;SDS011;6408;59.388;17.798;2022-09-11T13:03:32;5.20;;;1.85;;
12687;SDS011;6408;59.388;17.798;2022-09-11T13:06:00;3.80;;;2.47;;
12687;SDS011;6408;59.388;17.798;2022-09-11T13:08:33;3.78;;;2.30;;
12687;SDS011;6408;59.388;17.798;2022-09-11T13:14:03;3.15;;;2.10;;
12687;SDS011;6408;59.388;17.798;2022-09-11T13:16:32;5.22;;;1.77;;
12687;SDS011;6408;59.388;17.798;2022-09-11T13:19:01;5.75;;;1.85;;
12687;SDS011;6408;59.388;17.798;2022-09-11T13:21:37;3.17;;;1.77;;
12687;SDS011;6408;59.388;17.798;2022-09-11T13:26:50;4.50;;;1.80;;
12687;SDS011;6408;59.388;17.798;2022-09-11T13:29:19;3.17;;;1.83;;
12687;SDS011;6408;59.388;17.798;2022-09-11T13:31:48;2.58;;;1.50;;
12687;SDS011;6408;59.388;17.798;2022-09-11T13:34:16;2.22;;;1.80;;
12687;SDS011;6408;59.388;17.798;2022-09-11T13:36:47;4.25;;;1.50;;
12687;SDS011;6408;59.388;17.798;2022-09-11T13:39:14;2.65;;;1.60;;
12687;SDS011;6408;59.388;17.798;2022-09-11T13:41:46;1.35;;;1.23;;
12687;SDS011;6408;59.388;17.798;2022-09-11T13:44:25;3.95;;;1.77;;
12687;SDS011;6408;59.388;17.798;2022-09-11T13:46:57;3.67;;;1.80;;
12687;SDS011;6408;59.388;17.798;2022-09-11T13:49:27;3.70;;;1.50;;
12687;SDS011;6408;59.388;17.798;2022-09-11T13:51:59;5.72;;;1.88;;
12687;SDS011;6408;59.388;17.798;2022-09-11T13:54:27;3.00;;;1.60;;
12687;SDS011;6408;59.388;17.798;2022-09-11T13:57:09;3.53;;;1.75;;
12687;SDS011;6408;59.388;17.798;2022-09-11T13:59:48;3.80;;;1.70;;
12687;SDS011;6408;59.388;17.798;2022-09-11T14:05:09;3.72;;;1.90;;
12687;SDS011;6408;59.388;17.798;2022-09-11T14:07:44;3.30;;;1.80;;
12687;SDS011;6408;59.388;17.798;2022-09-11T14:10:25;2.83;;;1.73;;
12687;SDS011;6408;59.388;17.798;2022-09-11T14:12:57;1.63;;;1.50;;
12687;SDS011;6408;59.388;17.798;2022-09-11T14:15:34;2.28;;;1.35;;
12687;SDS011;6408;59.388;17.798;2022-09-11T14:18:05;4.38;;;1.88;;
12687;SDS011;6408;59.388;17.798;2022-09-11T14:20:39;2.45;;;2.03;;
12687;SDS011;6408;59.388;17.798;2022-09-11T14:23:11;3.97;;;1.92;;
12687;SDS011;6408;59.388;17.798;2022-09-11T14:26:07;3.22;;;1.88;;
12687;SDS011;6408;59.388;17.798;2022-09-11T14:28:41;2.10;;;1.60;;
12687;SDS011;6408;59.388;17.798;2022-09-11T14:31:11;2.83;;;1.45;;
12687;SDS011;6408;59.388;17.798;2022-09-11T14:34:00;2.22;;;1.50;;
12687;SDS011;6408;59.388;17.798;2022-09-11T14:36:36;3.58;;;1.40;;
12687;SDS011;6408;59.388;17.798;2022-09-11T14:39:06;2.38;;;1.50;;
12687;SDS011;6408;59.388;17.798;2022-09-11T14:41:36;3.47;;;1.70;;
12687;SDS011;6408;59.388;17.798;2022-09-11T14:44:04;2.40;;;1.58;;
12687;SDS011;6408;59.388;17.798;2022-09-11T14:46:32;1.75;;;1.48;;
12687;SDS011;6408;59.388;17.798;2022-09-11T14:48:59;2.55;;;1.67;;
12687;SDS011;6408;59.388;17.798;2022-09-11T14:51:26;1.60;;;1.27;;
12687;SDS011;6408;59.388;17.798;2022-09-11T14:53:54;4.70;;;1.63;;
12687;SDS011;6408;59.388;17.798;2022-09-11T14:56:22;3.83;;;1.73;;
12687;SDS011;6408;59.388;17.798;2022-09-11T14:58:49;2.70;;;1.70;;
12687;SDS011;6408;59.388;17.798;2022-09-11T15:01:18;3.25;;;1.60;;
12687;SDS011;6408;59.388;17.798;2022-09-11T15:03:45;3.45;;;1.65;;
12687;SDS011;6408;59.388;17.798;2022-09-11T15:06:13;3.38;;;1.73;;
12687;SDS011;6408;59.388;17.798;2022-09-11T15:08:44;4.70;;;1.60;;
12687;SDS011;6408;59.388;17.798;2022-09-11T15:11:11;2.50;;;1.70;;
12687;SDS011;6408;59.388;17.798;2022-09-11T15:13:38;2.35;;;1.63;;
12687;SDS011;6408;59.388;17.798;2022-09-11T15:16:05;2.65;;;1.45;;
12687;SDS011;6408;59.388;17.798;2022-09-11T15:18:34;4.47;;;1.70;;
12687;SDS011;6408;59.388;17.798;2022-09-11T15:21:02;1.60;;;1.27;;
12687;SDS011;6408;59.388;17.798;2022-09-11T15:23:29;2.38;;;1.83;;
12687;SDS011;6408;59.388;17.798;2022-09-11T15:25:57;1.92;;;1.40;;
12687;SDS011;6408;59.388;17.798;2022-09-11T15:28:25;3.72;;;1.80;;
12687;SDS011;6408;59.388;17.798;2022-09-11T15:30:53;2.13;;;1.55;;
12687;SDS011;6408;59.388;17.798;2022-09-11T15:33:22;5.20;;;1.80;;
12687;SDS011;6408;59.388;17.798;2022-09-11T15:35:51;3.53;;;1.40;;
12687;SDS011;6408;59.388;17.798;2022-09-11T15:38:20;1.77;;;1.67;;
12687;SDS011;6408;59.388;17.798;2022-09-11T15:40:49;3.30;;;1.67;;
12687;SDS011;6408;59.388;17.798;2022-09-11T15:43:20;2.75;;;1.55;;
12687;SDS011;6408;59.388;17.798;2022-09-11T15:45:49;3.30;;;1.50;;
12687;SDS011;6408;59.388;17.798;2022-09-11T15:48:16;3.50;;;1.77;;
12687;SDS011;6408;59.388;17.798;2022-09-11T15:50:45;3.83;;;1.60;;
12687;SDS011;6408;59.388;17.798;2022-09-11T15:53:26;2.83;;;1.63;;
12687;SDS011;6408;59.388;17.798;2022-09-11T15:56:00;2.55;;;1.80;;
12687;SDS011;6408;59.388;17.798;2022-09-11T15:58:29;4.47;;;1.67;;
12687;SDS011;6408;59.388;17.798;2022-09-11T16:00:56;4.50;;;1.65;;
12687;SDS011;6408;59.388;17.798;2022-09-11T16:03:24;1.75;;;1.65;;